Home > Products > Valid Products > TAF

000
FTUS44 KLZK 242300 AAC
TAFLIT
TAF AMD
KLIT 242307Z 2423/2518 23010KT P6SM VCTS BKN035CB OVC060
      TEMPO 2423/2501 VRB15G35KT 2SM TSRA BR BKN020CB OVC050
     FM250200 29012G20KT P6SM VCSH BKN040 OVC100
     FM250500 29005KT P6SM SCT100 SCT250
      TEMPO 2509/2513 5SM BR SCT010=



000
FTUS44 KLZK 242200 AAA
TAFPBF
TAF AMD
KPBF 242228Z 2422/2518 23008G18KT 6SM -RA BR BKN035 OVC050
      TEMPO 2423/2502 2SM +TSRA BR BKN020CB OVC040
     FM250300 29008G18KT P6SM VCSH BKN040 OVC080
     FM250600 29005KT P6SM SCT100 SCT250
      TEMPO 2509/2513 5SM BR SCT010=



000
FTUS44 KLZK 242200 AAB
TAFHOT
TAF AMD
KHOT 242206Z 2422/2518 22012G18KT P6SM VCTS BKN015CB OVC050
      TEMPO 2422/2424 30020G45KT 1SM +TSRA BR OVC020CB
     FM250100 29010G20KT P6SM VCSH BKN040 OVC100
     FM250400 29010KT P6SM SCT040 BKN100
      TEMPO 2509/2513 5SM BR=



000
FTUS44 KLZK 242200 AAB
TAFLIT
TAF AMD
KLIT 242200Z 2422/2518 22010KT P6SM VCTS BKN035CB OVC080
      TEMPO 2422/2423 2SM -RA BR OVC025
     FM242300 22009KT P6SM VCTS BKN035CB OVC060
      TEMPO 2423/2502 3SM TSRA BR BKN020CB OVC050
     FM250200 29012G20KT P6SM VCSH BKN040 OVC100
     FM250500 29005KT P6SM SCT100 SCT250
      TEMPO 2509/2513 5SM BR SCT010=



000
FTUS44 KLZK 242100 AAA
TAFLIT
TAF AMD
KLIT 242129Z 2421/2518 22010KT P6SM VCTS BKN035CB OVC080
      TEMPO 2423/2502 4SM TSRA BR BKN020CB OVC050
     FM250200 29012G20KT P6SM VCSH BKN040 OVC100
     FM250500 29005KT P6SM SCT100 SCT250
      TEMPO 2509/2513 5SM BR SCT010=



000
FTUS44 KLZK 242100 AAA
TAFHOT
TAF AMD
KHOT 242115Z 2421/2518 22012G18KT P6SM VCTS BKN015CB OVC050
      TEMPO 2422/2424 3SM TSRA BR BKN020CB OVC040
     FM250100 27010G20KT P6SM VCSH BKN040 OVC100
     FM250400 VRB04KT P6SM SKC
      TEMPO 2509/2513 5SM BR=



000
FTUS44 KLZK 242000 AAA
TAFHRO
TAF AMD
KHRO 242023Z 2420/2518 20010G20KT P6SM VCTS SCT025CB OVC080
      TEMPO 2421/2424 3SM TSRA BR BKN025CB OVC040
     FM250000 29012G20KT P6SM VCSH SCT020 BKN050 OVC100
     FM250500 27005KT P6SM SKC
      TEMPO 2508/2512 5SM BR=



000
FTUS44 KLZK 241700
TAFHRO
TAF
KHRO 241720Z 2418/2518 20010G20KT P6SM VCTS SCT025CB OVC080
      TEMPO 2419/2423 5SM TSRA BR BKN025CB
     FM250000 29012G20KT P6SM SCT020 BKN050
     FM250500 27004KT P6SM SKC
      TEMPO 2508/2512 5SM BR=



000
FTUS44 KLZK 241700
TAFHOT
TAF
KHOT 241720Z 2418/2518 20008G15KT P6SM VCTS BKN050CB OVC080
      TEMPO 2418/2420 5SM -TSRA BR BKN025CB
     FM242000 22012G18KT P6SM VCTS BKN035CB
      TEMPO 2420/2424 4SM TSRA BR BKN020CB
     FM250100 27010G20KT P6SM SCT040
     FM250600 VRB04KT P6SM SKC
      TEMPO 2509/2513 5SM BR=



000
FTUS44 KLZK 241700
TAFLIT
TAF
KLIT 241720Z 2418/2518 21010G20KT P6SM VCTS BKN050CB OVC100
      TEMPO 2418/2420 5SM -TSRA BR
     FM242000 22012G22KT P6SM VCTS BKN035CB
      TEMPO 2420/2424 4SM TSRA BR BKN020CB
     FM250200 29012G20KT P6SM SCT040
     FM250600 VRB04KT P6SM SKC
      TEMPO 2509/2513 5SM BR=



000
FTUS44 KLZK 241700
TAFPBF
TAF
KPBF 241720Z 2418/2518 20014G25KT P6SM VCTS BKN050CB
      TEMPO 2418/2421 5SM -TSRA BR
     FM242100 23015G28KT P6SM VCTS BKN035CB
      TEMPO 2421/2501 4SM TSRA BR BKN020CB
     FM250300 29012G20KT P6SM SCT040
     FM250700 VRB04KT P6SM SKC=



000
FTUS44 KLZK 241600 AAA
TAFLIT
TAF AMD
KLIT 241623Z 2416/2512 20012G20KT P6SM VCTS BKN050CB
      TEMPO 2416/2420 5SM -TSRA BR BKN025CB
     FM242000 24015G25KT P6SM VCTS BKN035CB
      TEMPO 2420/2424 5SM TSRA BR OVC025CB
     FM250300 27013G23KT P6SM SCT040=



000
FTUS44 KLZK 241500 AAA
TAFHOT
TAF AMD
KHOT 241516Z 2415/2512 19010G18KT P6SM VCTS OVC040CB
      TEMPO 2415/2419 5SM -TSRA OVC025CB
     FM241900 23012G20KT P6SM VCTS OVC035CB
      TEMPO 2419/2423 5SM TSRA BR OVC025CB
     FM250100 27007KT P6SM SCT040=



000
FTUS44 KLZK 241300 AAA
TAFHRO
TAF AMD
KHRO 241340Z 2414/2512 15012G20KT P6SM VCSH OVC060CB
      TEMPO 2415/2419 5SM -TSRA BR OVC030CB
     FM241900 19014G24KT 6SM -SHRA VCTS OVC025CB
     FM250300 28008KT P6SM SCT040=



000
FTUS44 KLZK 241100
TAFHOT
TAF
KHOT 241139Z 2412/2512 17008KT P6SM VCSH SCT040 OVC080
     FM241500 19010G18KT P6SM OVC040
      TEMPO 2415/2419 5SM -SHRA OVC025
     FM241900 23012G20KT P6SM VCSH OVC035
      TEMPO 2419/2423 5SM TSRA BR OVC025CB
     FM250100 27007KT P6SM SCT040=



000
FTUS44 KLZK 241100
TAFPBF
TAF
KPBF 241139Z 2412/2512 15003KT P6SM OVC250
     FM241400 19008KT P6SM SCT040 SCT250
     FM241900 20016G26KT P6SM VCSH SCT040 OVC080
      TEMPO 2419/2423 5SM TSRA BR OVC030CB
     FM250300 25013G23KT P6SM SCT040=



000
FTUS44 KLZK 241100
TAFHRO
TAF
KHRO 241139Z 2412/2512 13009KT P6SM OVC150
      TEMPO 2412/2413 3SM TSRA BR OVC040CB
     FM241300 15012G20KT P6SM -SHRA OVC060
      TEMPO 2415/2419 5SM -TSRA BR OVC030CB
     FM241900 19014G24KT 6SM -SHRA VCTS OVC025CB
     FM250300 28008KT P6SM SCT040=



000
FTUS44 KLZK 241100
TAFLIT
TAF
KLIT 241139Z 2412/2512 14007KT P6SM BKN060 OVC150
     FM241700 20015G25KT P6SM -SHRA OVC050
      TEMPO 2417/2421 5SM TSRA BR OVC030CB
     FM242100 24015G25KT 6SM -SHRA OVC030
      TEMPO 2421/2501 5SM TSRA BR OVC025CB
     FM250300 27013G23KT P6SM SCT040=



000
FTUS44 KLZK 241000 AAA
TAFHRO
TAF AMD
KHRO 241022Z 2410/2506 13008KT P6SM OVC150
      TEMPO 2410/2413 3SM TSRA BR OVC040CB
     FM241400 16012G20KT P6SM VCSH OVC080
     FM241800 19014G24KT P6SM -SHRA VCTS OVC025CB PROB30 2419/2424
      4SM -TSRA BR OVC015CB
     FM250300 28007KT P6SM SCT040=



000
FTUS44 KLZK 240500
TAFHOT
TAF
KHOT 240539Z 2406/2506 19008KT P6SM BKN250
     FM241500 19010G18KT P6SM VCSH BKN040
     FM241900 23012G20KT P6SM VCSH OVC035
     FM250000 27009KT P6SM BKN040=



000
FTUS44 KLZK 240500
TAFLIT
TAF
KLIT 240539Z 2406/2506 12004KT P6SM BKN250
     FM241300 18010KT P6SM SCT040 SCT250
     FM241700 19012G20KT P6SM VCSH SCT040 OVC080
     FM250300 27013G23KT P6SM SCT040=



000
FTUS44 KLZK 240500
TAFHRO
TAF
KHRO 240539Z 2406/2506 13008KT P6SM OVC250
     FM241400 16012G20KT P6SM VCSH OVC100
     FM241800 19014G24KT P6SM -SHRA VCTS OVC025CB PROB30 2418/2424
      4SM -TSRA BR OVC015CB
     FM250300 28007KT P6SM SCT040=



000
FTUS44 KLZK 240500
TAFPBF
TAF
KPBF 240539Z 2406/2506 15003KT P6SM BKN250
     FM241400 15008KT P6SM SCT040 SCT250
     FM241900 17010G18KT P6SM VCSH SCT040 BKN080
     FM250300 27013G23KT P6SM SCT040=



000
FTUS44 KLZK 232300 RRA
TAFHOT
TAF
KHOT 232343Z 2400/2424 19008KT P6SM SCT250
     FM241500 15010G18KT P6SM VCSH BKN040
     FM241900 23012KT P6SM VCSH OVC035=



000
FTUS44 KLZK 232300 RRA
TAFPBF
TAF
KPBF 232343Z 2400/2424 13005KT P6SM SCT250
     FM241400 15008KT P6SM SCT040 SCT250
     FM241900 17010G18KT P6SM VCSH SCT040 BKN080=



000
FTUS44 KLZK 232300 RRA
TAFHRO
TAF
KHRO 232343Z 2400/2424 12010KT P6SM SCT250
     FM240700 15008KT P6SM SCT040 BKN250
     FM241400 17012G20KT P6SM VCSH SCT025 BKN050
     FM241800 20014G24KT P6SM -SHRA VCTS BKN025CB PROB30 2418/2424
      4SM -TSRA BR OVC020CB=



000
FTUS44 KLZK 232300 RRA
TAFLIT
TAF
KLIT 232343Z 2400/2424 14009KT P6SM SCT250
     FM241300 14010KT P6SM SCT040 SCT250
     FM241700 17010G18KT P6SM VCSH SCT040 BKN080=



000
FTUS44 KLZK 231800 AAA
TAFHRO
TAF AMD
KHRO 231848Z 2319/2418 15010KT P6SM SCT250
     FM240500 15008KT P6SM SCT040 BKN250
     FM241200 17012G20KT P6SM VCSH SCT025 BKN050=



000
FTUS44 KLZK 231700
TAFPBF
TAF
KPBF 231720Z 2318/2418 13008KT P6SM SCT250
     FM241200 18012G18KT P6SM SCT040 SCT250=



000
FTUS44 KLZK 231700
TAFLIT
TAF
KLIT 231720Z 2318/2418 14008G16KT P6SM SCT250
     FM240500 14008KT P6SM SCT040 SCT250
     FM241200 17012G18KT P6SM VCSH SCT040 BKN080=



000
FTUS44 KLZK 231700
TAFHRO
TAF
KHRO 231720Z 2318/2418 16010G18KT P6SM SCT250
     FM240500 15008KT P6SM SCT040 BKN250
     FM241200 17012G20KT P6SM VCSH SCT025 BKN050=



000
FTUS44 KLZK 231700
TAFHOT
TAF
KHOT 231720Z 2318/2418 14008KT P6SM SCT250
     FM240900 15010G18KT P6SM VCSH BKN040=



000
FTUS44 KLZK 231100
TAFHOT
TAF
KHOT 231136Z 2312/2412 08003KT P6SM SKC
     FM231500 14008KT P6SM SCT250=



000
FTUS44 KLZK 231100
TAFLIT
TAF
KLIT 231136Z 2312/2412 07003KT P6SM SKC
     FM231500 11009KT P6SM SCT250
     FM240100 12004KT P6SM SCT250=



000
FTUS44 KLZK 231100
TAFPBF
TAF
KPBF 231136Z 2312/2412 05005KT P6SM SKC
     FM231500 11008KT P6SM SCT250
     FM240100 12004KT P6SM SCT250=



000
FTUS44 KLZK 231100
TAFHRO
TAF
KHRO 231136Z 2312/2412 15007KT P6SM SCT250
     FM231700 15012G20KT P6SM SCT250
     FM240000 14009KT P6SM SCT250=



000
FTUS44 KLZK 230500
TAFLIT
TAF
KLIT 230537Z 2306/2406 04003KT P6SM SKC
     FM231500 09008KT P6SM SCT250
     FM231800 13009KT P6SM SCT250
     FM240100 13004KT P6SM SCT250=



000
FTUS44 KLZK 230500
TAFHOT
TAF
KHOT 230537Z 2306/2406 08003KT P6SM SKC
     FM231500 14007KT P6SM SCT250=



000
FTUS44 KLZK 230500
TAFHRO
TAF
KHRO 230537Z 2306/2406 08003KT P6SM BKN250
     FM231700 15011G18KT P6SM SCT250
     FM240000 15008KT P6SM SCT250=



000
FTUS44 KLZK 230500
TAFPBF
TAF
KPBF 230537Z 2306/2406 03003KT P6SM SKC
     FM231500 12007KT P6SM SCT250=



000
FTUS44 KLZK 222300
TAFHRO
TAF
KHRO 222328Z 2300/2324 32005KT P6SM SKC
     FM231300 15007KT P6SM SCT250=



000
FTUS44 KLZK 222300
TAFHOT
TAF
KHOT 222328Z 2300/2324 33005KT P6SM SKC
     FM230300 VRB05KT P6SM SKC
     FM231500 14007KT P6SM SCT250=



000
FTUS44 KLZK 222300
TAFPBF
TAF
KPBF 222328Z 2300/2324 36005KT P6SM SKC
     FM230400 03003KT P6SM SKC
     FM231500 14007KT P6SM SCT250=



000
FTUS44 KLZK 222300
TAFLIT
TAF
KLIT 222328Z 2300/2324 36006KT P6SM SKC
     FM230400 03003KT P6SM SKC
     FM231500 14007KT P6SM SCT250=



000
FTUS44 KLZK 221900 AAA
TAFLIT
TAF AMD
KLIT 221934Z 2220/2318 01008KT P6SM FEW040
     FM230100 VRB05KT P6SM SCT250=



000
FTUS44 KLZK 221700
TAFHOT
TAF
KHOT 221721Z 2218/2318 02007KT P6SM SKC
     FM230300 VRB05KT P6SM SKC=



000
FTUS44 KLZK 221700
TAFLIT
TAF
KLIT 221721Z 2218/2318 01008G18KT P6SM FEW040
     FM230100 VRB05KT P6SM SCT250=



000
FTUS44 KLZK 221700
TAFHRO
TAF
KHRO 221721Z 2218/2318 35008KT P6SM SKC
     FM230000 VRB03KT P6SM SKC
     FM231200 15007KT P6SM SCT100=



000
FTUS44 KLZK 221700
TAFPBF
TAF
KPBF 221721Z 2218/2318 01008G18KT P6SM FEW040
     FM230200 VRB05KT P6SM SCT250=



000
FTUS44 KLZK 221600 AAB
TAFPBF
TAF AMD
KPBF 221610Z 2216/2312 34010KT P6SM BKN015
     FM221700 35010G18KT P6SM SCT040 SCT250
     FM230000 VRB06KT P6SM SCT250=



000
FTUS44 KLZK 221500 AAA
TAFPBF
TAF AMD
KPBF 221518Z 2215/2312 34010KT P6SM BKN015
     FM221600 35010G18KT P6SM SCT040 SCT250
     FM230000 VRB06KT P6SM SCT250=



000
FTUS44 KLZK 221500 AAB
TAFLIT
TAF AMD
KLIT 221517Z 2215/2312 36009KT P6SM FEW020 SCT035
     FM221600 36010G20KT P6SM SCT040 SCT250
     FM230000 VRB06KT P6SM SCT250=



000
FTUS44 KLZK 221300 AAA
TAFLIT
TAF AMD
KLIT 221316Z 2213/2312 VRB06KT 4SM BR FEW006 SCT025
     FM221400 36010G20KT P6SM SCT040 SCT250
     FM230000 VRB06KT P6SM SCT250=



000
FTUS44 KLZK 221100
TAFHRO
TAF
KHRO 221120Z 2212/2312 VRB04KT P6SM SCT040 BKN100
     FM221500 36008KT P6SM SKC
     FM230000 VRB03KT P6SM SKC=



000
FTUS44 KLZK 221100
TAFHOT
TAF
KHOT 221120Z 2212/2312 VRB03KT P6SM SCT005 BKN015
      TEMPO 2212/2213 4SM BR BKN002
     FM221400 36010G20KT P6SM SCT025 BKN040
     FM221800 02006KT P6SM SCT250
     FM230600 VRB04KT P6SM SKC=



000
FTUS44 KLZK 221100
TAFLIT
TAF
KLIT 221120Z 2212/2312 VRB06KT 4SM BR BKN010 OVC025
      TEMPO 2212/2214 2SM BR BKN004
     FM221400 36010G20KT P6SM SCT040 SCT250
     FM230000 VRB06KT P6SM SCT250=



000
FTUS44 KLZK 221100
TAFPBF
TAF
KPBF 221120Z 2212/2312 VRB06KT 5SM BR SCT010 OVC025
      TEMPO 2212/2214 3SM BR BKN005
     FM221400 36010G20KT P6SM BKN025 OVC040
     FM221600 35010G18KT P6SM SCT040 SCT250
     FM230000 VRB06KT P6SM SCT250=



000
FTUS44 KLZK 221000 AAA
TAFPBF
TAF AMD
KPBF 221006Z 2210/2306 VRB06KT 2SM BR BKN025 OVC040
      TEMPO 2210/2212 1/4SM FG BKN002 OVC010
     FM221400 36010G20KT P6SM SCT040 SCT250
     FM230000 VRB06KT P6SM SCT250=



000
FTUS44 KLZK 220700 AAB
TAFLIT
TAF AMD
KLIT 220752Z 2208/2306 VRB06KT 1SM BR BKN010 OVC025
      TEMPO 2208/2212 1/4SM FG BKN002
     FM221400 36010G20KT P6SM SCT040 SCT250
     FM230000 VRB06KT P6SM SCT250=



000
FTUS44 KLZK 220600 CCA
TAFLIT
TAF COR
KLIT 220656Z 2207/2306 35007KT 2SM BR SCT004 BKN030
      TEMPO 2207/2208 1/4SM FG BKN004
     FM220800 VRB06KT 1SM BR BKN010 OVC025
      TEMPO 2210/2212 1/4SM FG BKN004
     FM221400 36010G20KT P6SM SCT040 SCT250
     FM230000 VRB06KT P6SM SCT250=



000
FTUS44 KLZK 220600 AAA
TAFLIT
TAF AMD
KLIT 220642Z 2207/2306 35007KT 4SM BR SCT004 BKN030
      TEMPO 2207/2208 2SM BR BKN004
     FM220800 VRB06KT 3SM BR BKN010 OVC025
      TEMPO 2210/2212 1SM BR BKN004
     FM221400 36010G20KT P6SM SCT040 SCT250
     FM230000 VRB06KT P6SM SCT250=



000
FTUS44 KLZK 220500
TAFHRO
TAF
KHRO 220520Z 2206/2306 32007KT P6SM SCT025 BKN040
      TEMPO 2206/2209 4SM BR SCT010 BKN025
     FM220900 VRB04KT P6SM SCT040 BKN100
     FM221500 36008KT P6SM SKC
     FM230000 VRB03KT P6SM SKC=



000
FTUS44 KLZK 220500
TAFHOT
TAF
KHOT 220520Z 2206/2306 VRB03KT 3SM BR SCT020 BKN040
      TEMPO 2206/2210 1SM BR BKN005
     FM221000 VRB03KT 2SM BR BKN005 OVC020
      TEMPO 2210/2213 1/2SM FG
     FM221400 36010G20KT P6SM SCT025 BKN040
     FM221800 36006KT P6SM SCT250=



000
FTUS44 KLZK 220500
TAFPBF
TAF
KPBF 220520Z 2206/2306 34005KT P6SM VCSH SCT025 BKN050
      TEMPO 2206/2208 BKN015 BKN025
     FM220800 VRB06KT 4SM BR BKN025 OVC040
      TEMPO 2209/2212 2SM BR BKN010 OVC025
     FM221400 36010G20KT P6SM SCT040 SCT250
     FM230000 VRB06KT P6SM SCT250=



000
FTUS44 KLZK 220500
TAFLIT
TAF
KLIT 220520Z 2206/2306 35007KT P6SM SCT025 BKN040
      TEMPO 2206/2208 BKN025
     FM220800 VRB06KT 4SM BR BKN025 OVC040
      TEMPO 2210/2212 2SM BR BKN010 OVC025
     FM221400 36010G20KT P6SM SCT040 SCT250
     FM230000 VRB06KT P6SM SCT250=



000
FTUS44 KLZK 220300 AAB
TAFLIT
TAF AMD
KLIT 220301Z 2203/2224 30005KT P6SM VCSH BKN050 OVC100
      TEMPO 2203/2205 4SM BR SCT010 BKN040
     FM220500 24005KT 6SM BR VCSH SCT025 BKN035 OVC100
     FM220800 30005KT P6SM SCT025 BKN050 OVC100
     FM221400 36010G20KT P6SM SCT040 SCT250=



000
FTUS44 KLZK 220200 AAB
TAFHOT
TAF AMD
KHOT 220253Z 2203/2224 20005KT P6SM VCSH BKN035 OVC100
     FM220400 24005KT P6SM VCSH BKN035 OVC100
     FM220800 30005KT P6SM SCT025 BKN050 OVC100
     FM221400 36010G20KT P6SM SCT040 SCT250=



000
FTUS44 KLZK 220200 AAA
TAFLIT
TAF AMD
KLIT 220252Z 2203/2224 30005KT P6SM -RA BKN040 OVC100
     FM220500 24005KT P6SM VCSH SCT025 BKN035 OVC100
     FM220800 30005KT P6SM SCT025 BKN050 OVC100
     FM221400 36010G20KT P6SM SCT040 SCT250=



000
FTUS44 KLZK 220000 AAA
TAFHRO
TAF AMD
KHRO 220026Z 2200/2224 29005KT P6SM VCSH BKN035 OVC100
      TEMPO 2200/2202 3SM -RA BR BKN015 OVC050
     FM220500 32007KT P6SM FEW025 SCT050 BKN100
     FM221200 35009G15KT P6SM SCT035 SCT250=



000
FTUS44 KLZK 220000 AAA
TAFHOT
TAF AMD
KHOT 220003Z 2200/2224 20005KT P6SM -RA VCTS BKN035CB OVC100
      TEMPO 2200/2202 3SM -RA BR OVC040
     FM220400 24005KT P6SM VCSH BKN035 OVC100
     FM220600 30005KT P6SM SCT025 BKN050 OVC100
     FM221400 36010G20KT P6SM SCT040 SCT250=



000
FTUS44 KLZK 212300
TAFHRO
TAF
KHRO 212332Z 2200/2224 29005KT P6SM VCSH BKN035 OVC100
     FM220500 32007KT P6SM FEW025 SCT050 BKN100
     FM221200 35009G15KT P6SM SCT035 SCT250=



000
FTUS44 KLZK 212300
TAFLIT
TAF
KLIT 212332Z 2200/2224 30005KT P6SM -RA VCTS BKN040CB OVC100
     FM220400 24005KT P6SM VCSH BKN035 OVC100
     FM220700 30005KT P6SM SCT025 BKN050 OVC100
     FM221400 36010G20KT P6SM SCT040 SCT250=



000
FTUS44 KLZK 212300
TAFHOT
TAF
KHOT 212332Z 2200/2224 20005KT P6SM -RA VCTS BKN035CB OVC100
     FM220400 24005KT P6SM VCSH BKN035 OVC100
     FM220600 30005KT P6SM SCT025 BKN050 OVC100
     FM221400 36010G20KT P6SM SCT040 SCT250=



000
FTUS44 KLZK 212300
TAFPBF
TAF
KPBF 212332Z 2200/2224 26005KT P6SM -RA VCTS BKN040CB OVC100
     FM220600 25005KT P6SM VCSH BKN035 OVC100
     FM220800 30005KT P6SM SCT025 BKN050 OVC100
     FM221400 36010G20KT P6SM SCT040 SCT250=



    US Dept of Commerce
    National Oceanic and Atmospheric Administration
    National Weather Service
    1325 East West Highway
    Silver Spring, MD 20910
    Page Author: NWS Internet Services Team
Disclaimer
Information Quality
Credits
Glossary
Privacy Policy
Freedom of Information Act (FOIA)
About Us
Career Opportunities